»·PEaware :: N72FA L88-KSBP

N72FA :: L88-KSBP

FLIGHT INFORMATION

Flight Status: Arrived
Operator: Privately registered:
United States
More flights under this callsign
Pilot: Fco Javier A. (25981)
Aircraft: CESSNA 172 SKYHAWK
(C172)
More flights by this aircraft type
Origin: L88 New Cuyama
United States
Destination: KSBP San Luis Co Regl
United States
More flights between these airports :: More routes between these airports
Route: WYNNR
File this flight plan on PilotEdge
Remarks: ENGLISH SLOWLY PLEASE, THANKS
Altitude:
(Current/Filed)
6,500ft
Speed:
(Current/Filed)
100kts
Departed: 10-Oct-21 07:57 AM
Arrived: 10-Oct-21 09:08 AM
Distance/Time
Traveled:
50nm/1:11
Distance/Time
To Go:
Arrived

Flight Plot

Page will automatically refresh every two minutes.

Flight plan parsing failed; only flown route is shown


Map Options




Map Legend


Flown Route
Filed Route
Departure Airport
Arrival Airport
Navaid (VOR, NDB)
Fix

Horizontal Profiles

Position Reports

Time Latitude Longitude Heading Altitude Ground
Speed
10-Oct-21 07:28 34.942855 -119.690286 204 2207ft 0kts
10-Oct-21 07:29 34.942855 -119.690286 204 2207ft 0kts
10-Oct-21 07:30 34.942855 -119.690286 204 2207ft 0kts
10-Oct-21 07:31 34.942855 -119.690286 204 2207ft 0kts
10-Oct-21 07:32 34.942855 -119.690286 204 2207ft 0kts
10-Oct-21 07:33 34.942855 -119.690286 204 2207ft 0kts
10-Oct-21 07:34 34.942855 -119.690286 204 2207ft 0kts
10-Oct-21 07:35 34.942855 -119.690286 204 2207ft 0kts
10-Oct-21 07:36 34.942855 -119.690286 204 2207ft 0kts
10-Oct-21 07:37 34.942855 -119.690286 204 2207ft 0kts
10-Oct-21 07:38 34.942855 -119.690286 204 2207ft 0kts
10-Oct-21 07:39 34.942855 -119.690286 204 2207ft 0kts
10-Oct-21 07:40 34.942855 -119.690286 204 2207ft 0kts
10-Oct-21 07:41 34.942855 -119.690286 204 2207ft 0kts
10-Oct-21 07:42 34.942855 -119.690286 204 2207ft 0kts
10-Oct-21 07:43 34.942855 -119.690286 204 2207ft 0kts
10-Oct-21 07:44 34.942855 -119.690286 204 2207ft 0kts
10-Oct-21 07:45 34.942855 -119.690286 204 2207ft 0kts
10-Oct-21 07:46 34.942855 -119.690286 204 2207ft 0kts
10-Oct-21 07:47 34.942855 -119.690286 204 2207ft 0kts
10-Oct-21 07:48 34.942855 -119.690286 204 2207ft 0kts
10-Oct-21 07:49 34.942855 -119.690286 204 2207ft 0kts
10-Oct-21 07:50 34.942855 -119.690286 204 2207ft 0kts
10-Oct-21 07:51 34.942622 -119.691225 195 2207ft 0kts
10-Oct-21 07:53 34.941630 -119.689539 111 2207ft 16kts
10-Oct-21 07:54 34.938819 -119.682670 113 2207ft 26kts
10-Oct-21 07:55 34.937771 -119.680328 289 2207ft 0kts
10-Oct-21 07:56 34.937913 -119.680645 299 2207ft 14kts
10-Oct-21 07:57 34.947128 -119.702390 296 3038ft 79kts
10-Oct-21 07:58 34.956368 -119.726658 291 4085ft 81kts
10-Oct-21 07:59 34.964213 -119.753480 282 5023ft 87kts
10-Oct-21 08:00 34.974575 -119.780067 280 6059ft 87kts
10-Oct-21 08:01 34.989226 -119.806896 300 6570ft 109kts
10-Oct-21 08:02 35.007678 -119.840083 301 6601ft 122kts
10-Oct-21 08:03 35.026256 -119.874445 297 6446ft 121kts
10-Oct-21 08:04 35.044966 -119.908768 299 6328ft 122kts
10-Oct-21 08:05 35.062472 -119.943861 291 6300ft 120kts
10-Oct-21 08:06 35.077988 -119.979862 290 6263ft 120kts
10-Oct-21 08:07 35.091524 -120.017106 290 6311ft 121kts
10-Oct-21 08:08 35.112127 -120.051376 306 6355ft 123kts
10-Oct-21 08:09 35.119783 -120.063274 302 6364ft 123kts
10-Oct-21 08:33 34.942855 -119.690286 204 2207ft 0kts
10-Oct-21 08:34 34.942855 -119.690286 204 2207ft 0kts
10-Oct-21 08:35 34.942734 -119.691122 205 2207ft 6kts
10-Oct-21 08:36 34.940489 -119.686702 117 2207ft 36kts
10-Oct-21 08:38 34.938334 -119.681685 290 2207ft 38kts
10-Oct-21 08:38 34.946305 -119.701831 295 2851ft 89kts
10-Oct-21 08:39 34.962061 -119.724475 293 3930ft 87kts
10-Oct-21 08:40 34.970223 -119.750830 302 4966ft 84kts
10-Oct-21 08:41 34.983369 -119.774052 290 5925ft 83kts
10-Oct-21 08:42 34.991225 -119.801455 280 6632ft 93kts
10-Oct-21 08:43 35.000922 -119.837137 290 6619ft 117kts
10-Oct-21 08:44 35.014537 -119.873602 292 6359ft 118kts
10-Oct-21 08:45 35.028548 -119.909999 291 6228ft 118kts
10-Oct-21 08:46 35.039492 -119.946493 285 6301ft 114kts
10-Oct-21 08:47 35.046083 -119.984296 284 6368ft 114kts
10-Oct-21 08:48 35.052345 -120.022011 270 6427ft 114kts
10-Oct-21 08:49 35.056619 -120.060453 282 6502ft 114kts
10-Oct-21 08:50 35.067337 -120.096793 291 6586ft 113kts
10-Oct-21 08:51 35.079226 -120.132814 287 6664ft 113kts
10-Oct-21 08:52 35.087760 -120.170254 283 6683ft 114kts
10-Oct-21 08:53 35.095302 -120.207975 284 6630ft 114kts
10-Oct-21 08:54 35.105184 -120.245463 288 6599ft 114kts
10-Oct-21 08:55 35.118846 -120.280750 307 6578ft 114kts
10-Oct-21 08:56 35.137775 -120.312066 302 6354ft 115kts
10-Oct-21 08:57 35.153163 -120.346410 296 5676ft 114kts
10-Oct-21 08:58 35.169212 -120.379791 293 4843ft 113kts
10-Oct-21 08:59 35.179460 -120.416100 284 4098ft 112kts
10-Oct-21 09:00 35.184905 -120.453417 276 3396ft 111kts
10-Oct-21 09:01 35.187233 -120.490977 269 2712ft 110kts
10-Oct-21 09:02 35.188225 -120.528188 278 2049ft 109kts
10-Oct-21 09:03 35.195529 -120.563432 291 1537ft 101kts
10-Oct-21 09:04 35.209955 -120.592619 301 1183ft 99kts
10-Oct-21 09:05 35.223391 -120.616949 304 631ft 71kts
10-Oct-21 09:06 35.234584 -120.636109 303 222ft 62kts
10-Oct-21 09:07 35.237668 -120.639944 2 216ft 11kts
10-Oct-21 09:08 35.238511 -120.640065 318 216ft 0kts

Navigation Log

Ident Type
Flight plan parsing failed, navigation log unavailable